sensor_id;sensor_type;location;lat;lon;timestamp;temperature;humidity
16321;DHT22;8269;50.990;4.494;2023-04-30T00:00:11;9.10;99.90
16321;DHT22;8269;50.990;4.494;2023-04-30T00:02:37;9.10;99.90
16321;DHT22;8269;50.990;4.494;2023-04-30T00:05:03;9.10;99.90
16321;DHT22;8269;50.990;4.494;2023-04-30T00:07:28;9.00;99.90
16321;DHT22;8269;50.990;4.494;2023-04-30T00:09:54;9.00;99.90
16321;DHT22;8269;50.990;4.494;2023-04-30T00:12:20;9.00;99.90
16321;DHT22;8269;50.990;4.494;2023-04-30T00:14:46;9.00;99.90
16321;DHT22;8269;50.990;4.494;2023-04-30T00:17:12;9.00;99.90
16321;DHT22;8269;50.990;4.494;2023-04-30T00:19:37;8.90;99.90
16321;DHT22;8269;50.990;4.494;2023-04-30T00:22:03;8.90;99.90
16321;DHT22;8269;50.990;4.494;2023-04-30T00:24:29;8.90;99.90
16321;DHT22;8269;50.990;4.494;2023-04-30T00:26:55;8.90;99.90
16321;DHT22;8269;50.990;4.494;2023-04-30T00:29:21;8.80;99.90
16321;DHT22;8269;50.990;4.494;2023-04-30T00:31:47;8.80;99.90
16321;DHT22;8269;50.990;4.494;2023-04-30T00:34:13;8.70;99.90
16321;DHT22;8269;50.990;4.494;2023-04-30T00:36:38;8.70;99.90
16321;DHT22;8269;50.990;4.494;2023-04-30T00:39:05;8.70;99.90
16321;DHT22;8269;50.990;4.494;2023-04-30T00:41:32;8.70;99.90
16321;DHT22;8269;50.990;4.494;2023-04-30T00:43:59;8.70;99.90
16321;DHT22;8269;50.990;4.494;2023-04-30T00:46:26;8.60;99.90
16321;DHT22;8269;50.990;4.494;2023-04-30T00:48:52;8.60;99.90
16321;DHT22;8269;50.990;4.494;2023-04-30T00:51:18;8.50;99.90
16321;DHT22;8269;50.990;4.494;2023-04-30T00:53:44;8.50;99.90
16321;DHT22;8269;50.990;4.494;2023-04-30T00:56:12;8.50;99.90
16321;DHT22;8269;50.990;4.494;2023-04-30T00:58:40;8.40;99.90
16321;DHT22;8269;50.990;4.494;2023-04-30T01:01:06;8.40;99.90
16321;DHT22;8269;50.990;4.494;2023-04-30T01:03:32;8.30;99.90
16321;DHT22;8269;50.990;4.494;2023-04-30T01:06:00;8.30;99.90
16321;DHT22;8269;50.990;4.494;2023-04-30T01:08:28;8.20;99.90
16321;DHT22;8269;50.990;4.494;2023-04-30T01:11:16;8.20;99.90
16321;DHT22;8269;50.990;4.494;2023-04-30T01:13:55;8.20;99.90
16321;DHT22;8269;50.990;4.494;2023-04-30T01:16:31;8.20;99.90
16321;DHT22;8269;50.990;4.494;2023-04-30T01:19:08;8.10;99.90
16321;DHT22;8269;50.990;4.494;2023-04-30T01:21:38;8.10;99.90
16321;DHT22;8269;50.990;4.494;2023-04-30T01:27:14;7.90;99.90
16321;DHT22;8269;50.990;4.494;2023-04-30T01:29:49;7.90;99.90
16321;DHT22;8269;50.990;4.494;2023-04-30T01:32:14;7.80;99.90
16321;DHT22;8269;50.990;4.494;2023-04-30T01:34:40;7.80;99.90
16321;DHT22;8269;50.990;4.494;2023-04-30T01:42:48;7.60;99.90
16321;DHT22;8269;50.990;4.494;2023-04-30T01:45:27;7.60;99.90
16321;DHT22;8269;50.990;4.494;2023-04-30T01:52:59;7.50;99.90
16321;DHT22;8269;50.990;4.494;2023-04-30T01:55:27;7.50;99.90
16321;DHT22;8269;50.990;4.494;2023-04-30T01:58:00;7.50;99.90
16321;DHT22;8269;50.990;4.494;2023-04-30T02:00:28;7.50;99.90
16321;DHT22;8269;50.990;4.494;2023-04-30T02:02:58;7.50;99.90
16321;DHT22;8269;50.990;4.494;2023-04-30T02:05:23;7.50;99.90
16321;DHT22;8269;50.990;4.494;2023-04-30T02:07:50;7.50;99.90
16321;DHT22;8269;50.990;4.494;2023-04-30T02:10:18;7.40;99.90
16321;DHT22;8269;50.990;4.494;2023-04-30T02:12:44;7.40;99.90
16321;DHT22;8269;50.990;4.494;2023-04-30T02:15:09;7.40;99.90
16321;DHT22;8269;50.990;4.494;2023-04-30T02:17:35;7.40;99.90
16321;DHT22;8269;50.990;4.494;2023-04-30T02:20:01;7.40;99.90
16321;DHT22;8269;50.990;4.494;2023-04-30T02:22:28;7.30;99.90
16321;DHT22;8269;50.990;4.494;2023-04-30T02:24:54;7.40;99.90
16321;DHT22;8269;50.990;4.494;2023-04-30T02:27:22;7.30;99.90
16321;DHT22;8269;50.990;4.494;2023-04-30T02:29:48;7.20;99.90
16321;DHT22;8269;50.990;4.494;2023-04-30T02:32:13;7.10;99.90
16321;DHT22;8269;50.990;4.494;2023-04-30T02:34:39;7.20;99.90
16321;DHT22;8269;50.990;4.494;2023-04-30T02:37:06;7.20;99.90
16321;DHT22;8269;50.990;4.494;2023-04-30T02:39:31;7.20;99.90
16321;DHT22;8269;50.990;4.494;2023-04-30T02:41:57;7.20;99.90
16321;DHT22;8269;50.990;4.494;2023-04-30T02:44:23;7.10;99.90
16321;DHT22;8269;50.990;4.494;2023-04-30T02:46:49;7.10;99.90
16321;DHT22;8269;50.990;4.494;2023-04-30T02:49:15;7.10;99.90
16321;DHT22;8269;50.990;4.494;2023-04-30T02:51:40;7.10;99.90
16321;DHT22;8269;50.990;4.494;2023-04-30T02:54:06;7.00;99.90
16321;DHT22;8269;50.990;4.494;2023-04-30T02:56:32;7.00;99.90
16321;DHT22;8269;50.990;4.494;2023-04-30T02:58:57;6.90;99.90
16321;DHT22;8269;50.990;4.494;2023-04-30T03:01:23;6.90;99.90
16321;DHT22;8269;50.990;4.494;2023-04-30T03:03:49;6.80;99.90
16321;DHT22;8269;50.990;4.494;2023-04-30T03:06:15;6.80;99.90
16321;DHT22;8269;50.990;4.494;2023-04-30T03:08:40;6.80;99.90
16321;DHT22;8269;50.990;4.494;2023-04-30T03:11:06;6.70;99.90
16321;DHT22;8269;50.990;4.494;2023-04-30T03:13:31;6.70;99.90
16321;DHT22;8269;50.990;4.494;2023-04-30T03:16:01;6.70;99.90
16321;DHT22;8269;50.990;4.494;2023-04-30T03:18:27;6.60;99.90
16321;DHT22;8269;50.990;4.494;2023-04-30T03:20:53;6.60;99.90
16321;DHT22;8269;50.990;4.494;2023-04-30T03:23:19;6.60;99.90
16321;DHT22;8269;50.990;4.494;2023-04-30T03:25:46;6.50;99.90
16321;DHT22;8269;50.990;4.494;2023-04-30T03:28:12;6.50;99.90
16321;DHT22;8269;50.990;4.494;2023-04-30T03:30:38;6.50;99.90
16321;DHT22;8269;50.990;4.494;2023-04-30T03:33:04;6.50;99.90
16321;DHT22;8269;50.990;4.494;2023-04-30T03:35:33;6.50;99.90
16321;DHT22;8269;50.990;4.494;2023-04-30T03:38:02;6.50;99.90
16321;DHT22;8269;50.990;4.494;2023-04-30T03:40:27;6.40;99.90
16321;DHT22;8269;50.990;4.494;2023-04-30T03:42:53;6.40;99.90
16321;DHT22;8269;50.990;4.494;2023-04-30T03:45:19;6.40;99.90
16321;DHT22;8269;50.990;4.494;2023-04-30T03:47:45;6.30;99.90
16321;DHT22;8269;50.990;4.494;2023-04-30T03:50:11;6.30;99.90
16321;DHT22;8269;50.990;4.494;2023-04-30T03:52:36;6.30;99.90
16321;DHT22;8269;50.990;4.494;2023-04-30T03:55:03;6.30;99.90
16321;DHT22;8269;50.990;4.494;2023-04-30T03:57:28;6.30;99.90
16321;DHT22;8269;50.990;4.494;2023-04-30T03:59:54;6.20;99.90
16321;DHT22;8269;50.990;4.494;2023-04-30T04:02:21;6.30;99.90
16321;DHT22;8269;50.990;4.494;2023-04-30T04:04:47;6.20;99.90
16321;DHT22;8269;50.990;4.494;2023-04-30T04:07:13;6.20;99.90
16321;DHT22;8269;50.990;4.494;2023-04-30T04:09:39;6.20;99.90
16321;DHT22;8269;50.990;4.494;2023-04-30T04:12:05;6.20;99.90
16321;DHT22;8269;50.990;4.494;2023-04-30T04:14:31;6.20;99.90
16321;DHT22;8269;50.990;4.494;2023-04-30T04:16:56;6.10;99.90
16321;DHT22;8269;50.990;4.494;2023-04-30T04:19:24;6.10;99.90
16321;DHT22;8269;50.990;4.494;2023-04-30T04:21:50;6.10;99.90
16321;DHT22;8269;50.990;4.494;2023-04-30T04:24:16;6.10;99.90
16321;DHT22;8269;50.990;4.494;2023-04-30T04:26:41;6.10;99.90
16321;DHT22;8269;50.990;4.494;2023-04-30T04:29:07;6.10;99.90
16321;DHT22;8269;50.990;4.494;2023-04-30T04:31:34;6.20;99.90
16321;DHT22;8269;50.990;4.494;2023-04-30T04:34:02;6.20;99.90
16321;DHT22;8269;50.990;4.494;2023-04-30T04:36:29;6.20;99.90
16321;DHT22;8269;50.990;4.494;2023-04-30T04:38:58;6.30;99.90
16321;DHT22;8269;50.990;4.494;2023-04-30T04:41:31;6.30;99.90
16321;DHT22;8269;50.990;4.494;2023-04-30T04:43:57;6.40;99.90
16321;DHT22;8269;50.990;4.494;2023-04-30T04:46:24;6.50;99.90
16321;DHT22;8269;50.990;4.494;2023-04-30T04:48:50;6.60;99.90
16321;DHT22;8269;50.990;4.494;2023-04-30T04:51:16;6.80;99.90
16321;DHT22;8269;50.990;4.494;2023-04-30T04:53:41;7.00;99.90
16321;DHT22;8269;50.990;4.494;2023-04-30T04:56:07;7.40;99.90
16321;DHT22;8269;50.990;4.494;2023-04-30T04:58:33;7.80;99.90
16321;DHT22;8269;50.990;4.494;2023-04-30T05:00:59;8.30;99.90
16321;DHT22;8269;50.990;4.494;2023-04-30T05:03:26;8.70;99.90
16321;DHT22;8269;50.990;4.494;2023-04-30T05:05:52;9.20;99.90
16321;DHT22;8269;50.990;4.494;2023-04-30T05:08:18;9.50;99.90
16321;DHT22;8269;50.990;4.494;2023-04-30T05:10:44;9.70;99.90
16321;DHT22;8269;50.990;4.494;2023-04-30T05:13:09;10.00;99.90
16321;DHT22;8269;50.990;4.494;2023-04-30T05:15:36;10.30;99.90
16321;DHT22;8269;50.990;4.494;2023-04-30T05:18:01;10.60;99.90
16321;DHT22;8269;50.990;4.494;2023-04-30T05:20:27;10.60;99.90
16321;DHT22;8269;50.990;4.494;2023-04-30T05:22:53;10.90;99.90
16321;DHT22;8269;50.990;4.494;2023-04-30T05:25:18;11.00;99.90
16321;DHT22;8269;50.990;4.494;2023-04-30T05:27:44;11.10;99.90
16321;DHT22;8269;50.990;4.494;2023-04-30T05:30:10;11.30;99.90
16321;DHT22;8269;50.990;4.494;2023-04-30T05:32:36;11.50;99.90
16321;DHT22;8269;50.990;4.494;2023-04-30T05:35:02;11.70;99.90
16321;DHT22;8269;50.990;4.494;2023-04-30T05:37:27;11.70;99.90
16321;DHT22;8269;50.990;4.494;2023-04-30T05:39:53;11.60;99.90
16321;DHT22;8269;50.990;4.494;2023-04-30T05:42:19;11.90;99.90
16321;DHT22;8269;50.990;4.494;2023-04-30T05:44:45;12.20;99.90
16321;DHT22;8269;50.990;4.494;2023-04-30T05:47:11;12.60;99.90
16321;DHT22;8269;50.990;4.494;2023-04-30T05:49:37;12.90;99.90
16321;DHT22;8269;50.990;4.494;2023-04-30T05:52:03;12.90;99.90
16321;DHT22;8269;50.990;4.494;2023-04-30T05:54:29;12.80;99.90
16321;DHT22;8269;50.990;4.494;2023-04-30T05:56:55;13.00;99.90
16321;DHT22;8269;50.990;4.494;2023-04-30T05:59:21;13.40;99.90
16321;DHT22;8269;50.990;4.494;2023-04-30T06:01:46;13.60;99.90
16321;DHT22;8269;50.990;4.494;2023-04-30T06:04:12;13.90;99.90
16321;DHT22;8269;50.990;4.494;2023-04-30T06:06:37;14.00;99.90
16321;DHT22;8269;50.990;4.494;2023-04-30T06:09:03;14.20;99.90
16321;DHT22;8269;50.990;4.494;2023-04-30T06:11:29;14.20;99.90
16321;DHT22;8269;50.990;4.494;2023-04-30T06:13:55;14.10;99.90
16321;DHT22;8269;50.990;4.494;2023-04-30T06:16:21;14.30;99.90
16321;DHT22;8269;50.990;4.494;2023-04-30T06:18:47;14.10;99.90
16321;DHT22;8269;50.990;4.494;2023-04-30T06:21:13;14.40;99.90
16321;DHT22;8269;50.990;4.494;2023-04-30T06:23:39;14.70;99.90
16321;DHT22;8269;50.990;4.494;2023-04-30T06:26:04;14.70;99.90
16321;DHT22;8269;50.990;4.494;2023-04-30T06:28:30;14.70;99.90
16321;DHT22;8269;50.990;4.494;2023-04-30T06:30:55;14.70;99.90
16321;DHT22;8269;50.990;4.494;2023-04-30T06:33:21;14.70;99.90
16321;DHT22;8269;50.990;4.494;2023-04-30T06:35:48;15.10;99.90
16321;DHT22;8269;50.990;4.494;2023-04-30T06:38:16;15.20;99.90
16321;DHT22;8269;50.990;4.494;2023-04-30T06:40:43;15.10;99.90
16321;DHT22;8269;50.990;4.494;2023-04-30T06:43:08;14.90;99.90
16321;DHT22;8269;50.990;4.494;2023-04-30T06:45:34;14.90;99.90
16321;DHT22;8269;50.990;4.494;2023-04-30T06:48:00;15.20;99.90
16321;DHT22;8269;50.990;4.494;2023-04-30T06:50:26;15.40;99.90
16321;DHT22;8269;50.990;4.494;2023-04-30T06:52:51;15.50;99.90
16321;DHT22;8269;50.990;4.494;2023-04-30T06:55:17;15.90;99.90
16321;DHT22;8269;50.990;4.494;2023-04-30T06:57:43;16.10;99.90
16321;DHT22;8269;50.990;4.494;2023-04-30T07:00:10;16.50;99.90
16321;DHT22;8269;50.990;4.494;2023-04-30T07:02:37;16.60;99.90
16321;DHT22;8269;50.990;4.494;2023-04-30T07:05:04;16.50;99.90
16321;DHT22;8269;50.990;4.494;2023-04-30T07:07:30;16.70;99.90
16321;DHT22;8269;50.990;4.494;2023-04-30T07:09:56;16.70;99.90
16321;DHT22;8269;50.990;4.494;2023-04-30T07:12:22;16.80;99.90
16321;DHT22;8269;50.990;4.494;2023-04-30T07:14:48;17.00;99.90
16321;DHT22;8269;50.990;4.494;2023-04-30T07:17:13;17.30;99.90
16321;DHT22;8269;50.990;4.494;2023-04-30T07:19:39;17.40;99.40
16321;DHT22;8269;50.990;4.494;2023-04-30T07:22:05;17.50;98.20
16321;DHT22;8269;50.990;4.494;2023-04-30T07:24:30;17.30;97.60
16321;DHT22;8269;50.990;4.494;2023-04-30T07:26:56;17.10;98.30
16321;DHT22;8269;50.990;4.494;2023-04-30T07:29:23;17.00;98.00
16321;DHT22;8269;50.990;4.494;2023-04-30T07:31:48;17.10;99.50
16321;DHT22;8269;50.990;4.494;2023-04-30T07:34:14;17.50;98.00
16321;DHT22;8269;50.990;4.494;2023-04-30T07:36:40;17.90;97.40
16321;DHT22;8269;50.990;4.494;2023-04-30T07:39:05;18.00;95.40
16321;DHT22;8269;50.990;4.494;2023-04-30T07:41:32;18.20;94.60
16321;DHT22;8269;50.990;4.494;2023-04-30T07:43:57;18.10;94.50
16321;DHT22;8269;50.990;4.494;2023-04-30T07:46:24;18.40;93.60
16321;DHT22;8269;50.990;4.494;2023-04-30T07:48:50;18.30;93.40
16321;DHT22;8269;50.990;4.494;2023-04-30T07:51:15;18.30;92.40
16321;DHT22;8269;50.990;4.494;2023-04-30T07:53:41;18.50;92.80
16321;DHT22;8269;50.990;4.494;2023-04-30T07:56:07;18.80;91.90
16321;DHT22;8269;50.990;4.494;2023-04-30T07:58:33;18.90;91.30
16321;DHT22;8269;50.990;4.494;2023-04-30T08:00:58;19.30;90.60
16321;DHT22;8269;50.990;4.494;2023-04-30T08:03:24;19.50;86.40
16321;DHT22;8269;50.990;4.494;2023-04-30T08:05:51;19.50;86.80
16321;DHT22;8269;50.990;4.494;2023-04-30T08:08:17;19.60;84.80
16321;DHT22;8269;50.990;4.494;2023-04-30T08:10:42;19.70;84.90
16321;DHT22;8269;50.990;4.494;2023-04-30T08:13:08;19.80;85.10
16321;DHT22;8269;50.990;4.494;2023-04-30T08:15:34;19.90;81.90
16321;DHT22;8269;50.990;4.494;2023-04-30T08:18:01;19.90;80.10
16321;DHT22;8269;50.990;4.494;2023-04-30T08:20:27;19.80;80.20
16321;DHT22;8269;50.990;4.494;2023-04-30T08:22:53;19.70;80.70
16321;DHT22;8269;50.990;4.494;2023-04-30T08:25:18;19.90;81.40
16321;DHT22;8269;50.990;4.494;2023-04-30T08:27:44;20.10;78.60
16321;DHT22;8269;50.990;4.494;2023-04-30T08:30:11;19.90;79.10
16321;DHT22;8269;50.990;4.494;2023-04-30T08:32:36;20.30;78.00
16321;DHT22;8269;50.990;4.494;2023-04-30T08:35:06;20.30;76.60
16321;DHT22;8269;50.990;4.494;2023-04-30T08:37:32;20.20;74.90
16321;DHT22;8269;50.990;4.494;2023-04-30T08:39:59;20.00;74.40
16321;DHT22;8269;50.990;4.494;2023-04-30T08:42:29;19.60;76.50
16321;DHT22;8269;50.990;4.494;2023-04-30T08:44:55;19.50;76.20
16321;DHT22;8269;50.990;4.494;2023-04-30T08:47:21;19.40;78.10
16321;DHT22;8269;50.990;4.494;2023-04-30T08:49:48;19.60;76.30
16321;DHT22;8269;50.990;4.494;2023-04-30T08:52:17;19.70;76.80
16321;DHT22;8269;50.990;4.494;2023-04-30T08:54:43;19.60;75.80
16321;DHT22;8269;50.990;4.494;2023-04-30T08:57:09;19.50;77.40
16321;DHT22;8269;50.990;4.494;2023-04-30T08:59:35;19.50;76.90
16321;DHT22;8269;50.990;4.494;2023-04-30T09:02:00;19.80;75.10
16321;DHT22;8269;50.990;4.494;2023-04-30T09:04:26;20.00;75.20
16321;DHT22;8269;50.990;4.494;2023-04-30T09:06:52;20.00;74.30
16321;DHT22;8269;50.990;4.494;2023-04-30T09:09:29;20.00;74.20
16321;DHT22;8269;50.990;4.494;2023-04-30T09:12:16;20.10;72.70
16321;DHT22;8269;50.990;4.494;2023-04-30T09:14:58;19.70;72.50
16321;DHT22;8269;50.990;4.494;2023-04-30T09:17:24;19.60;73.20
16321;DHT22;8269;50.990;4.494;2023-04-30T09:19:51;19.50;72.40
16321;DHT22;8269;50.990;4.494;2023-04-30T09:22:21;19.40;73.80
16321;DHT22;8269;50.990;4.494;2023-04-30T09:24:48;19.50;73.30
16321;DHT22;8269;50.990;4.494;2023-04-30T09:27:22;19.50;72.80
16321;DHT22;8269;50.990;4.494;2023-04-30T09:29:48;19.70;72.90
16321;DHT22;8269;50.990;4.494;2023-04-30T09:32:14;19.50;77.80
16321;DHT22;8269;50.990;4.494;2023-04-30T09:34:40;19.00;71.90
16321;DHT22;8269;50.990;4.494;2023-04-30T09:37:08;18.60;73.90
16321;DHT22;8269;50.990;4.494;2023-04-30T09:39:49;18.40;74.10
16321;DHT22;8269;50.990;4.494;2023-04-30T09:42:15;18.40;75.20
16321;DHT22;8269;50.990;4.494;2023-04-30T09:44:42;18.60;74.50
16321;DHT22;8269;50.990;4.494;2023-04-30T09:47:15;18.70;75.20
16321;DHT22;8269;50.990;4.494;2023-04-30T09:49:51;18.80;74.30
16321;DHT22;8269;50.990;4.494;2023-04-30T09:52:18;18.30;74.30
16321;DHT22;8269;50.990;4.494;2023-04-30T09:54:45;18.20;75.00
16321;DHT22;8269;50.990;4.494;2023-04-30T09:57:12;18.10;74.20
16321;DHT22;8269;50.990;4.494;2023-04-30T09:59:43;17.90;75.50
16321;DHT22;8269;50.990;4.494;2023-04-30T10:02:09;17.80;76.00
16321;DHT22;8269;50.990;4.494;2023-04-30T10:04:36;17.50;84.00
16321;DHT22;8269;50.990;4.494;2023-04-30T10:07:09;17.50;76.70
16321;DHT22;8269;50.990;4.494;2023-04-30T10:09:50;17.50;76.20
16321;DHT22;8269;50.990;4.494;2023-04-30T10:12:23;17.70;75.50
16321;DHT22;8269;50.990;4.494;2023-04-30T10:15:12;17.60;75.60
16321;DHT22;8269;50.990;4.494;2023-04-30T10:20:11;17.40;74.30
16321;DHT22;8269;50.990;4.494;2023-04-30T10:22:37;17.10;74.90
16321;DHT22;8269;50.990;4.494;2023-04-30T10:25:03;18.10;76.00
16321;DHT22;8269;50.990;4.494;2023-04-30T10:27:29;17.10;75.60
16321;DHT22;8269;50.990;4.494;2023-04-30T10:29:58;17.30;74.40
16321;DHT22;8269;50.990;4.494;2023-04-30T10:35:27;17.60;76.00
16321;DHT22;8269;50.990;4.494;2023-04-30T10:38:23;17.90;71.40
16321;DHT22;8269;50.990;4.494;2023-04-30T10:40:50;18.00;70.90
16321;DHT22;8269;50.990;4.494;2023-04-30T10:43:19;18.00;72.00
16321;DHT22;8269;50.990;4.494;2023-04-30T10:45:46;18.10;93.80
16321;DHT22;8269;50.990;4.494;2023-04-30T10:48:15;18.30;69.80
16321;DHT22;8269;50.990;4.494;2023-04-30T10:53:17;18.50;69.10
16321;DHT22;8269;50.990;4.494;2023-04-30T10:55:57;18.50;69.10
16321;DHT22;8269;50.990;4.494;2023-04-30T10:58:29;18.50;79.10
16321;DHT22;8269;50.990;4.494;2023-04-30T11:01:11;18.30;74.20
16321;DHT22;8269;50.990;4.494;2023-04-30T11:03:38;18.30;97.30
16321;DHT22;8269;50.990;4.494;2023-04-30T11:06:15;18.40;68.40
16321;DHT22;8269;50.990;4.494;2023-04-30T11:08:44;18.50;68.50
16321;DHT22;8269;50.990;4.494;2023-04-30T11:11:11;18.60;66.70
16321;DHT22;8269;50.990;4.494;2023-04-30T11:13:45;18.70;67.90
16321;DHT22;8269;50.990;4.494;2023-04-30T11:16:11;18.80;65.40
16321;DHT22;8269;50.990;4.494;2023-04-30T11:18:40;18.70;65.30
16321;DHT22;8269;50.990;4.494;2023-04-30T11:21:07;18.80;65.80
16321;DHT22;8269;50.990;4.494;2023-04-30T11:23:33;18.80;64.80
16321;DHT22;8269;50.990;4.494;2023-04-30T11:30:51;18.90;64.20
16321;DHT22;8269;50.990;4.494;2023-04-30T11:33:17;18.60;63.30
16321;DHT22;8269;50.990;4.494;2023-04-30T11:35:43;18.40;63.20
16321;DHT22;8269;50.990;4.494;2023-04-30T11:43:01;18.70;63.90
16321;DHT22;8269;50.990;4.494;2023-04-30T11:47:54;18.90;64.30
16321;DHT22;8269;50.990;4.494;2023-04-30T12:00:20;18.60;64.40
16321;DHT22;8269;50.990;4.494;2023-04-30T12:02:47;18.60;61.90
16321;DHT22;8269;50.990;4.494;2023-04-30T12:05:16;18.50;62.00
16321;DHT22;8269;50.990;4.494;2023-04-30T12:07:56;18.50;63.20
16321;DHT22;8269;50.990;4.494;2023-04-30T12:10:23;18.30;62.40
16321;DHT22;8269;50.990;4.494;2023-04-30T12:12:50;18.20;63.40
16321;DHT22;8269;50.990;4.494;2023-04-30T12:15:17;18.60;61.30
16321;DHT22;8269;50.990;4.494;2023-04-30T12:20:10;18.80;60.60
16321;DHT22;8269;50.990;4.494;2023-04-30T12:22:36;18.80;61.90
16321;DHT22;8269;50.990;4.494;2023-04-30T12:32:22;19.00;59.00
16321;DHT22;8269;50.990;4.494;2023-04-30T12:34:47;18.90;59.50
16321;DHT22;8269;50.990;4.494;2023-04-30T12:37:16;19.00;59.50
16321;DHT22;8269;50.990;4.494;2023-04-30T12:39:41;19.00;58.90
16321;DHT22;8269;50.990;4.494;2023-04-30T12:42:07;19.10;59.00
16321;DHT22;8269;50.990;4.494;2023-04-30T12:44:40;19.10;59.30
16321;DHT22;8269;50.990;4.494;2023-04-30T12:47:06;19.10;59.80
16321;DHT22;8269;50.990;4.494;2023-04-30T12:49:32;18.90;59.20
16321;DHT22;8269;50.990;4.494;2023-04-30T12:51:58;18.80;59.00
16321;DHT22;8269;50.990;4.494;2023-04-30T12:54:26;18.70;60.20
16321;DHT22;8269;50.990;4.494;2023-04-30T12:59:32;18.90;59.50
16321;DHT22;8269;50.990;4.494;2023-04-30T13:02:11;18.90;59.20
16321;DHT22;8269;50.990;4.494;2023-04-30T13:04:38;19.10;60.00
16321;DHT22;8269;50.990;4.494;2023-04-30T13:07:03;19.00;58.40
16321;DHT22;8269;50.990;4.494;2023-04-30T13:09:30;18.80;58.20
16321;DHT22;8269;50.990;4.494;2023-04-30T13:11:56;18.90;58.60
16321;DHT22;8269;50.990;4.494;2023-04-30T13:16:47;18.40;57.90
16321;DHT22;8269;50.990;4.494;2023-04-30T13:19:13;18.40;58.10
16321;DHT22;8269;50.990;4.494;2023-04-30T13:21:39;18.50;59.10
16321;DHT22;8269;50.990;4.494;2023-04-30T13:24:05;18.70;59.70
16321;DHT22;8269;50.990;4.494;2023-04-30T13:26:30;18.90;59.40
16321;DHT22;8269;50.990;4.494;2023-04-30T13:28:56;18.90;81.30
16321;DHT22;8269;50.990;4.494;2023-04-30T13:31:21;19.20;57.40
16321;DHT22;8269;50.990;4.494;2023-04-30T13:33:47;19.20;57.20
16321;DHT22;8269;50.990;4.494;2023-04-30T13:36:13;19.10;57.20
16321;DHT22;8269;50.990;4.494;2023-04-30T13:38:39;18.90;57.40
16321;DHT22;8269;50.990;4.494;2023-04-30T13:41:04;18.80;58.40
16321;DHT22;8269;50.990;4.494;2023-04-30T13:43:30;18.70;58.00
16321;DHT22;8269;50.990;4.494;2023-04-30T13:45:56;18.60;57.00
16321;DHT22;8269;50.990;4.494;2023-04-30T13:48:22;18.70;57.40
16321;DHT22;8269;50.990;4.494;2023-04-30T13:50:49;18.80;58.30
16321;DHT22;8269;50.990;4.494;2023-04-30T13:53:14;18.90;57.60
16321;DHT22;8269;50.990;4.494;2023-04-30T13:55:40;18.80;56.30
16321;DHT22;8269;50.990;4.494;2023-04-30T13:58:05;18.80;57.20
16321;DHT22;8269;50.990;4.494;2023-04-30T14:00:31;18.80;57.40
16321;DHT22;8269;50.990;4.494;2023-04-30T14:02:56;18.80;55.40
16321;DHT22;8269;50.990;4.494;2023-04-30T14:05:22;18.80;55.80
16321;DHT22;8269;50.990;4.494;2023-04-30T14:07:48;19.00;55.20
16321;DHT22;8269;50.990;4.494;2023-04-30T14:10:13;19.10;56.00
16321;DHT22;8269;50.990;4.494;2023-04-30T14:12:39;19.40;56.10
16321;DHT22;8269;50.990;4.494;2023-04-30T14:15:04;19.60;55.80
16321;DHT22;8269;50.990;4.494;2023-04-30T14:17:30;19.70;56.30
16321;DHT22;8269;50.990;4.494;2023-04-30T14:19:56;19.80;56.50
16321;DHT22;8269;50.990;4.494;2023-04-30T14:22:21;19.70;56.50
16321;DHT22;8269;50.990;4.494;2023-04-30T14:24:48;19.80;56.30
16321;DHT22;8269;50.990;4.494;2023-04-30T14:27:14;19.90;79.80
16321;DHT22;8269;50.990;4.494;2023-04-30T14:29:40;19.80;67.90
16321;DHT22;8269;50.990;4.494;2023-04-30T14:32:05;19.90;78.60
16321;DHT22;8269;50.990;4.494;2023-04-30T14:34:31;19.70;70.80
16321;DHT22;8269;50.990;4.494;2023-04-30T14:36:57;19.60;68.30
16321;DHT22;8269;50.990;4.494;2023-04-30T14:39:24;19.80;68.50
16321;DHT22;8269;50.990;4.494;2023-04-30T14:41:49;19.90;68.20
16321;DHT22;8269;50.990;4.494;2023-04-30T14:44:15;20.00;67.80
16321;DHT22;8269;50.990;4.494;2023-04-30T14:46:41;20.00;66.00
16321;DHT22;8269;50.990;4.494;2023-04-30T14:49:06;20.00;53.80
16321;DHT22;8269;50.990;4.494;2023-04-30T14:51:32;19.90;53.90
16321;DHT22;8269;50.990;4.494;2023-04-30T14:53:57;19.80;54.90
16321;DHT22;8269;50.990;4.494;2023-04-30T14:56:23;19.80;54.70
16321;DHT22;8269;50.990;4.494;2023-04-30T14:58:49;19.60;54.90
16321;DHT22;8269;50.990;4.494;2023-04-30T15:01:15;19.60;55.70
16321;DHT22;8269;50.990;4.494;2023-04-30T15:03:41;19.50;56.30
16321;DHT22;8269;50.990;4.494;2023-04-30T15:06:06;19.50;57.40
16321;DHT22;8269;50.990;4.494;2023-04-30T15:08:32;19.50;55.40
16321;DHT22;8269;50.990;4.494;2023-04-30T15:10:58;19.40;55.30
16321;DHT22;8269;50.990;4.494;2023-04-30T15:13:25;19.50;55.80
16321;DHT22;8269;50.990;4.494;2023-04-30T15:15:50;19.50;55.20
16321;DHT22;8269;50.990;4.494;2023-04-30T15:18:16;19.40;55.10
16321;DHT22;8269;50.990;4.494;2023-04-30T15:20:41;19.30;55.60
16321;DHT22;8269;50.990;4.494;2023-04-30T15:23:07;19.20;56.40
16321;DHT22;8269;50.990;4.494;2023-04-30T15:25:33;19.10;56.70
16321;DHT22;8269;50.990;4.494;2023-04-30T15:27:59;19.10;60.80
16321;DHT22;8269;50.990;4.494;2023-04-30T15:30:24;19.30;63.60
16321;DHT22;8269;50.990;4.494;2023-04-30T15:32:50;19.40;62.00
16321;DHT22;8269;50.990;4.494;2023-04-30T15:35:15;19.50;60.40
16321;DHT22;8269;50.990;4.494;2023-04-30T15:37:41;19.60;59.60
16321;DHT22;8269;50.990;4.494;2023-04-30T15:42:35;19.50;52.70
16321;DHT22;8269;50.990;4.494;2023-04-30T15:45:02;19.50;53.20
16321;DHT22;8269;50.990;4.494;2023-04-30T15:47:28;19.50;53.80
16321;DHT22;8269;50.990;4.494;2023-04-30T15:49:53;19.60;53.30
16321;DHT22;8269;50.990;4.494;2023-04-30T15:52:19;19.70;53.40
16321;DHT22;8269;50.990;4.494;2023-04-30T15:54:45;19.70;53.10
16321;DHT22;8269;50.990;4.494;2023-04-30T15:57:10;19.70;53.60
16321;DHT22;8269;50.990;4.494;2023-04-30T15:59:36;19.60;53.50
16321;DHT22;8269;50.990;4.494;2023-04-30T16:02:01;19.60;54.30
16321;DHT22;8269;50.990;4.494;2023-04-30T16:04:27;19.60;55.60
16321;DHT22;8269;50.990;4.494;2023-04-30T16:06:53;19.60;53.20
16321;DHT22;8269;50.990;4.494;2023-04-30T16:09:19;19.60;53.00
16321;DHT22;8269;50.990;4.494;2023-04-30T16:11:47;19.60;52.70
16321;DHT22;8269;50.990;4.494;2023-04-30T16:14:13;19.60;53.10
16321;DHT22;8269;50.990;4.494;2023-04-30T16:16:39;19.70;53.80
16321;DHT22;8269;50.990;4.494;2023-04-30T16:19:04;19.70;53.80
16321;DHT22;8269;50.990;4.494;2023-04-30T16:21:32;19.80;54.50
16321;DHT22;8269;50.990;4.494;2023-04-30T16:23:58;19.90;54.30
16321;DHT22;8269;50.990;4.494;2023-04-30T16:26:23;19.90;54.90
16321;DHT22;8269;50.990;4.494;2023-04-30T16:28:49;19.90;54.90
16321;DHT22;8269;50.990;4.494;2023-04-30T16:31:15;19.90;55.40
16321;DHT22;8269;50.990;4.494;2023-04-30T16:33:41;19.80;55.50
16321;DHT22;8269;50.990;4.494;2023-04-30T16:36:07;19.60;55.80
16321;DHT22;8269;50.990;4.494;2023-04-30T16:38:33;19.50;54.80
16321;DHT22;8269;50.990;4.494;2023-04-30T16:40:58;19.40;55.50
16321;DHT22;8269;50.990;4.494;2023-04-30T16:43:24;19.20;54.50
16321;DHT22;8269;50.990;4.494;2023-04-30T16:45:49;19.20;55.50
16321;DHT22;8269;50.990;4.494;2023-04-30T16:48:16;19.10;56.20